sensor_id;sensor_type;location;lat;lon;timestamp;pressure;altitude;pressure_sealevel;temperature;humidity
59608;BME280;45426;44.726;10.390;2024-02-15T00:01:25;101467.19;;;6.66;100.00
59608;BME280;45426;44.726;10.390;2024-02-15T00:03:51;101468.63;;;6.53;100.00
59608;BME280;45426;44.726;10.390;2024-02-15T00:06:16;101471.84;;;6.00;100.00
59608;BME280;45426;44.726;10.390;2024-02-15T00:08:42;101476.72;;;5.83;100.00
59608;BME280;45426;44.726;10.390;2024-02-15T00:11:07;101469.53;;;5.42;100.00
59608;BME280;45426;44.726;10.390;2024-02-15T00:13:34;101467.41;;;5.24;100.00
59608;BME280;45426;44.726;10.390;2024-02-15T00:16:03;101461.72;;;5.31;100.00
59608;BME280;45426;44.726;10.390;2024-02-15T00:18:28;101453.09;;;5.23;100.00
59608;BME280;45426;44.726;10.390;2024-02-15T00:20:54;101454.69;;;5.40;100.00
59608;BME280;45426;44.726;10.390;2024-02-15T00:23:19;101444.94;;;5.70;100.00
59608;BME280;45426;44.726;10.390;2024-02-15T00:25:45;101447.63;;;5.75;100.00
59608;BME280;45426;44.726;10.390;2024-02-15T00:28:11;101446.78;;;5.84;100.00
59608;BME280;45426;44.726;10.390;2024-02-15T00:30:38;101448.81;;;5.28;100.00
59608;BME280;45426;44.726;10.390;2024-02-15T00:33:03;101445.03;;;5.18;100.00
59608;BME280;45426;44.726;10.390;2024-02-15T00:35:29;101436.94;;;5.39;100.00
59608;BME280;45426;44.726;10.390;2024-02-15T00:37:54;101434.09;;;5.90;100.00
59608;BME280;45426;44.726;10.390;2024-02-15T00:40:20;101426.34;;;6.33;100.00
59608;BME280;45426;44.726;10.390;2024-02-15T00:42:46;101419.28;;;5.88;100.00
59608;BME280;45426;44.726;10.390;2024-02-15T00:45:12;101416.94;;;5.55;100.00
59608;BME280;45426;44.726;10.390;2024-02-15T00:47:38;101431.91;;;6.02;100.00
59608;BME280;45426;44.726;10.390;2024-02-15T00:50:04;101417.59;;;6.52;100.00
59608;BME280;45426;44.726;10.390;2024-02-15T00:52:29;101414.88;;;6.57;100.00
59608;BME280;45426;44.726;10.390;2024-02-15T00:54:56;101419.41;;;5.47;100.00
59608;BME280;45426;44.726;10.390;2024-02-15T00:57:25;101420.53;;;5.04;100.00
59608;BME280;45426;44.726;10.390;2024-02-15T00:59:50;101423.22;;;4.74;100.00
59608;BME280;45426;44.726;10.390;2024-02-15T01:02:18;101421.88;;;4.76;100.00
59608;BME280;45426;44.726;10.390;2024-02-15T01:04:44;101423.44;;;5.49;100.00
59608;BME280;45426;44.726;10.390;2024-02-15T01:07:14;101419.41;;;5.47;100.00
59608;BME280;45426;44.726;10.390;2024-02-15T01:09:39;101420.81;;;4.93;100.00
59608;BME280;45426;44.726;10.390;2024-02-15T01:12:05;101415.41;;;4.82;100.00
59608;BME280;45426;44.726;10.390;2024-02-15T01:14:31;101415.97;;;5.05;100.00
59608;BME280;45426;44.726;10.390;2024-02-15T01:16:57;101415.66;;;5.17;100.00
59608;BME280;45426;44.726;10.390;2024-02-15T01:19:25;101421.84;;;4.71;100.00
59608;BME280;45426;44.726;10.390;2024-02-15T01:21:50;101431.56;;;4.88;100.00
59608;BME280;45426;44.726;10.390;2024-02-15T01:24:16;101426.19;;;4.72;100.00
59608;BME280;45426;44.726;10.390;2024-02-15T01:26:41;101415.41;;;5.18;100.00
59608;BME280;45426;44.726;10.390;2024-02-15T01:29:08;101419.19;;;4.81;100.00
59608;BME280;45426;44.726;10.390;2024-02-15T01:31:37;101421.59;;;4.62;100.00
59608;BME280;45426;44.726;10.390;2024-02-15T01:34:04;101423.44;;;4.46;100.00
59608;BME280;45426;44.726;10.390;2024-02-15T01:36:29;101426.13;;;4.41;100.00
59608;BME280;45426;44.726;10.390;2024-02-15T01:38:55;101418.31;;;4.35;100.00
59608;BME280;45426;44.726;10.390;2024-02-15T01:41:21;101415.91;;;4.48;100.00
59608;BME280;45426;44.726;10.390;2024-02-15T01:43:47;101423.47;;;4.67;100.00
59608;BME280;45426;44.726;10.390;2024-02-15T01:46:15;101421.28;;;4.38;100.00
59608;BME280;45426;44.726;10.390;2024-02-15T01:48:41;101413.72;;;4.35;100.00
59608;BME280;45426;44.726;10.390;2024-02-15T01:51:09;101414.81;;;4.34;100.00
59608;BME280;45426;44.726;10.390;2024-02-15T01:53:40;101416.91;;;4.12;100.00
59608;BME280;45426;44.726;10.390;2024-02-15T01:56:06;101409.72;;;4.43;100.00
59608;BME280;45426;44.726;10.390;2024-02-15T01:58:32;101410.50;;;5.41;100.00
59608;BME280;45426;44.726;10.390;2024-02-15T02:00:59;101408.88;;;5.45;100.00
59608;BME280;45426;44.726;10.390;2024-02-15T02:03:25;101409.19;;;4.77;100.00
59608;BME280;45426;44.726;10.390;2024-02-15T02:05:51;101413.81;;;4.81;100.00
59608;BME280;45426;44.726;10.390;2024-02-15T02:08:16;101413.25;;;4.64;100.00
59608;BME280;45426;44.726;10.390;2024-02-15T02:10:42;101407.63;;;5.01;100.00
59608;BME280;45426;44.726;10.390;2024-02-15T02:13:09;101407.34;;;4.72;100.00
59608;BME280;45426;44.726;10.390;2024-02-15T02:15:35;101414.56;;;5.33;100.00
59608;BME280;45426;44.726;10.390;2024-02-15T02:18:03;101425.06;;;5.45;100.00
59608;BME280;45426;44.726;10.390;2024-02-15T02:20:34;101422.69;;;4.82;100.00
59608;BME280;45426;44.726;10.390;2024-02-15T02:23:16;101429.78;;;3.99;100.00
59608;BME280;45426;44.726;10.390;2024-02-15T02:25:44;101438.44;;;4.22;100.00
59608;BME280;45426;44.726;10.390;2024-02-15T02:28:11;101436.78;;;4.05;100.00
59608;BME280;45426;44.726;10.390;2024-02-15T02:30:37;101428.31;;;3.71;100.00
59608;BME280;45426;44.726;10.390;2024-02-15T02:33:13;101434.81;;;3.80;100.00
59608;BME280;45426;44.726;10.390;2024-02-15T02:35:44;101438.16;;;4.08;100.00
59608;BME280;45426;44.726;10.390;2024-02-15T02:38:10;101435.03;;;4.42;100.00
59608;BME280;45426;44.726;10.390;2024-02-15T02:40:38;101432.28;;;4.32;100.00
59608;BME280;45426;44.726;10.390;2024-02-15T02:43:03;101432.53;;;4.30;100.00
59608;BME280;45426;44.726;10.390;2024-02-15T02:45:29;101432.53;;;4.20;100.00
59608;BME280;45426;44.726;10.390;2024-02-15T02:47:54;101434.69;;;4.28;100.00
59608;BME280;45426;44.726;10.390;2024-02-15T02:50:21;101435.84;;;4.53;100.00
59608;BME280;45426;44.726;10.390;2024-02-15T02:52:51;101430.72;;;4.51;100.00
59608;BME280;45426;44.726;10.390;2024-02-15T02:55:16;101433.94;;;4.38;100.00
59608;BME280;45426;44.726;10.390;2024-02-15T02:57:43;101425.97;;;3.90;100.00
59608;BME280;45426;44.726;10.390;2024-02-15T03:00:10;101429.50;;;3.96;100.00
59608;BME280;45426;44.726;10.390;2024-02-15T03:02:40;101435.19;;;4.15;100.00
59608;BME280;45426;44.726;10.390;2024-02-15T03:05:06;101422.94;;;3.71;100.00
59608;BME280;45426;44.726;10.390;2024-02-15T03:07:33;101428.53;;;3.64;100.00
59608;BME280;45426;44.726;10.390;2024-02-15T03:10:00;101429.03;;;3.56;100.00
59608;BME280;45426;44.726;10.390;2024-02-15T03:12:25;101430.34;;;4.06;100.00
59608;BME280;45426;44.726;10.390;2024-02-15T03:14:52;101431.22;;;3.59;100.00
59608;BME280;45426;44.726;10.390;2024-02-15T03:17:20;101428.44;;;3.49;100.00
59608;BME280;45426;44.726;10.390;2024-02-15T03:19:46;101433.84;;;3.54;100.00
59608;BME280;45426;44.726;10.390;2024-02-15T03:22:14;101428.69;;;3.95;100.00
59608;BME280;45426;44.726;10.390;2024-02-15T03:24:40;101425.75;;;4.02;100.00
59608;BME280;45426;44.726;10.390;2024-02-15T03:27:06;101424.09;;;3.96;100.00
59608;BME280;45426;44.726;10.390;2024-02-15T03:29:31;101426.66;;;3.65;100.00
59608;BME280;45426;44.726;10.390;2024-02-15T03:31:59;101422.06;;;3.60;100.00
59608;BME280;45426;44.726;10.390;2024-02-15T03:34:24;101423.16;;;3.64;100.00
59608;BME280;45426;44.726;10.390;2024-02-15T03:36:51;101420.47;;;3.64;100.00
59608;BME280;45426;44.726;10.390;2024-02-15T03:39:19;101424.97;;;3.48;100.00
59608;BME280;45426;44.726;10.390;2024-02-15T03:41:45;101423.88;;;3.44;100.00
59608;BME280;45426;44.726;10.390;2024-02-15T03:44:12;101417.34;;;3.35;100.00
59608;BME280;45426;44.726;10.390;2024-02-15T03:46:37;101418.63;;;3.22;100.00
59608;BME280;45426;44.726;10.390;2024-02-15T03:49:03;101419.50;;;3.33;100.00
59608;BME280;45426;44.726;10.390;2024-02-15T03:51:31;101416.66;;;3.50;100.00
59608;BME280;45426;44.726;10.390;2024-02-15T03:53:57;101409.22;;;3.25;100.00
59608;BME280;45426;44.726;10.390;2024-02-15T03:56:23;101409.59;;;3.44;100.00
59608;BME280;45426;44.726;10.390;2024-02-15T03:58:51;101414.34;;;3.26;100.00
59608;BME280;45426;44.726;10.390;2024-02-15T04:01:17;101412.50;;;3.80;100.00
59608;BME280;45426;44.726;10.390;2024-02-15T04:03:42;101410.63;;;3.91;100.00
59608;BME280;45426;44.726;10.390;2024-02-15T04:06:12;101403.19;;;3.45;100.00
59608;BME280;45426;44.726;10.390;2024-02-15T04:08:38;101406.22;;;3.16;100.00
59608;BME280;45426;44.726;10.390;2024-02-15T04:11:06;101402.41;;;3.55;100.00
59608;BME280;45426;44.726;10.390;2024-02-15T04:13:35;101401.00;;;4.00;100.00
59608;BME280;45426;44.726;10.390;2024-02-15T04:16:01;101392.25;;;4.45;100.00
59608;BME280;45426;44.726;10.390;2024-02-15T04:18:27;101386.84;;;4.40;100.00
59608;BME280;45426;44.726;10.390;2024-02-15T04:20:57;101398.50;;;3.83;100.00
59608;BME280;45426;44.726;10.390;2024-02-15T04:23:24;101390.59;;;4.39;100.00
59608;BME280;45426;44.726;10.390;2024-02-15T04:25:49;101393.19;;;3.98;100.00
59608;BME280;45426;44.726;10.390;2024-02-15T04:28:17;101401.31;;;4.08;100.00
59608;BME280;45426;44.726;10.390;2024-02-15T04:30:42;101401.81;;;4.00;100.00
59608;BME280;45426;44.726;10.390;2024-02-15T04:33:08;101399.66;;;4.07;100.00
59608;BME280;45426;44.726;10.390;2024-02-15T04:35:34;101400.97;;;3.89;100.00
59608;BME280;45426;44.726;10.390;2024-02-15T04:37:59;101406.63;;;3.98;100.00
59608;BME280;45426;44.726;10.390;2024-02-15T04:40:24;101403.47;;;4.22;100.00
59608;BME280;45426;44.726;10.390;2024-02-15T04:42:50;101398.63;;;4.14;100.00
59608;BME280;45426;44.726;10.390;2024-02-15T04:45:16;101393.75;;;4.05;100.00
59608;BME280;45426;44.726;10.390;2024-02-15T04:47:42;101387.03;;;4.13;100.00
59608;BME280;45426;44.726;10.390;2024-02-15T04:50:10;101391.66;;;4.28;100.00
59608;BME280;45426;44.726;10.390;2024-02-15T04:52:36;101386.88;;;4.76;100.00
59608;BME280;45426;44.726;10.390;2024-02-15T04:55:02;101388.47;;;4.88;100.00
59608;BME280;45426;44.726;10.390;2024-02-15T04:57:30;101385.50;;;5.15;100.00
59608;BME280;45426;44.726;10.390;2024-02-15T05:00:02;101384.19;;;4.66;100.00
59608;BME280;45426;44.726;10.390;2024-02-15T05:02:34;101384.09;;;4.15;100.00
59608;BME280;45426;44.726;10.390;2024-02-15T05:05:06;101387.81;;;3.98;100.00
59608;BME280;45426;44.726;10.390;2024-02-15T05:07:34;101386.66;;;3.68;100.00
59608;BME280;45426;44.726;10.390;2024-02-15T05:10:07;101385.66;;;3.95;100.00
59608;BME280;45426;44.726;10.390;2024-02-15T05:12:34;101390.97;;;3.75;100.00
59608;BME280;45426;44.726;10.390;2024-02-15T05:14:59;101389.78;;;3.55;100.00
59608;BME280;45426;44.726;10.390;2024-02-15T05:17:25;101392.72;;;3.48;100.00
59608;BME280;45426;44.726;10.390;2024-02-15T05:19:56;101397.16;;;3.80;100.00
59608;BME280;45426;44.726;10.390;2024-02-15T05:22:27;101397.34;;;3.10;100.00
59608;BME280;45426;44.726;10.390;2024-02-15T05:24:54;101397.88;;;3.18;100.00
59608;BME280;45426;44.726;10.390;2024-02-15T05:27:23;101398.78;;;2.91;100.00
59608;BME280;45426;44.726;10.390;2024-02-15T05:29:54;101392.16;;;2.66;100.00
59608;BME280;45426;44.726;10.390;2024-02-15T05:32:19;101394.59;;;2.73;100.00
59608;BME280;45426;44.726;10.390;2024-02-15T05:34:46;101393.50;;;3.01;100.00
59608;BME280;45426;44.726;10.390;2024-02-15T05:37:15;101390.47;;;3.30;100.00
59608;BME280;45426;44.726;10.390;2024-02-15T05:39:43;101395.78;;;3.73;100.00
59608;BME280;45426;44.726;10.390;2024-02-15T05:42:11;101392.31;;;3.77;100.00
59608;BME280;45426;44.726;10.390;2024-02-15T05:44:36;101396.56;;;3.68;100.00
59608;BME280;45426;44.726;10.390;2024-02-15T05:47:04;101395.16;;;3.50;100.00
59608;BME280;45426;44.726;10.390;2024-02-15T05:49:29;101400.22;;;3.46;100.00
59608;BME280;45426;44.726;10.390;2024-02-15T05:51:55;101389.53;;;3.57;100.00
59608;BME280;45426;44.726;10.390;2024-02-15T05:54:21;101396.41;;;3.37;100.00
59608;BME280;45426;44.726;10.390;2024-02-15T05:56:50;101398.72;;;3.23;100.00
59608;BME280;45426;44.726;10.390;2024-02-15T05:59:21;101397.75;;;3.40;100.00
59608;BME280;45426;44.726;10.390;2024-02-15T06:01:54;101403.19;;;3.45;100.00
59608;BME280;45426;44.726;10.390;2024-02-15T06:04:19;101394.56;;;3.43;100.00
59608;BME280;45426;44.726;10.390;2024-02-15T06:06:45;101387.44;;;3.69;100.00
59608;BME280;45426;44.726;10.390;2024-02-15T06:09:14;101390.50;;;3.98;100.00
59608;BME280;45426;44.726;10.390;2024-02-15T06:11:39;101388.69;;;3.51;100.00
59608;BME280;45426;44.726;10.390;2024-02-15T06:14:05;101396.47;;;3.42;100.00
59608;BME280;45426;44.726;10.390;2024-02-15T06:16:31;101400.69;;;3.33;100.00
59608;BME280;45426;44.726;10.390;2024-02-15T06:18:57;101401.81;;;3.42;100.00
59608;BME280;45426;44.726;10.390;2024-02-15T06:21:25;101404.00;;;3.08;100.00
59608;BME280;45426;44.726;10.390;2024-02-15T06:24:01;101404.78;;;2.71;100.00
59608;BME280;45426;44.726;10.390;2024-02-15T06:26:26;101411.56;;;3.54;100.00
59608;BME280;45426;44.726;10.390;2024-02-15T06:28:52;101407.94;;;3.33;100.00
59608;BME280;45426;44.726;10.390;2024-02-15T06:31:36;101407.09;;;3.75;100.00
59608;BME280;45426;44.726;10.390;2024-02-15T06:34:22;101398.13;;;4.27;100.00
59608;BME280;45426;44.726;10.390;2024-02-15T06:37:06;101406.09;;;3.96;100.00
59608;BME280;45426;44.726;10.390;2024-02-15T06:39:50;101410.03;;;3.73;100.00
59608;BME280;45426;44.726;10.390;2024-02-15T06:42:17;101416.09;;;3.53;100.00
59608;BME280;45426;44.726;10.390;2024-02-15T06:44:56;101415.16;;;3.27;100.00
59608;BME280;45426;44.726;10.390;2024-02-15T06:47:23;101413.41;;;3.48;100.00
59608;BME280;45426;44.726;10.390;2024-02-15T06:49:48;101422.03;;;3.50;100.00
59608;BME280;45426;44.726;10.390;2024-02-15T06:52:17;101416.25;;;3.79;100.00
59608;BME280;45426;44.726;10.390;2024-02-15T06:54:44;101425.06;;;4.58;100.00
59608;BME280;45426;44.726;10.390;2024-02-15T06:57:10;101412.81;;;5.83;100.00
59608;BME280;45426;44.726;10.390;2024-02-15T06:59:36;101412.34;;;6.26;100.00
59608;BME280;45426;44.726;10.390;2024-02-15T07:02:05;101412.94;;;6.23;100.00
59608;BME280;45426;44.726;10.390;2024-02-15T07:04:33;101411.97;;;6.48;100.00
59608;BME280;45426;44.726;10.390;2024-02-15T07:07:02;101412.09;;;8.41;100.00
59608;BME280;45426;44.726;10.390;2024-02-15T07:09:28;101410.88;;;8.52;100.00
59608;BME280;45426;44.726;10.390;2024-02-15T07:11:56;101417.06;;;8.34;100.00
59608;BME280;45426;44.726;10.390;2024-02-15T07:14:23;101415.72;;;7.93;100.00
59608;BME280;45426;44.726;10.390;2024-02-15T07:16:49;101422.00;;;8.51;100.00
59608;BME280;45426;44.726;10.390;2024-02-15T07:19:17;101422.66;;;8.43;100.00
59608;BME280;45426;44.726;10.390;2024-02-15T07:21:46;101418.47;;;10.04;100.00
59608;BME280;45426;44.726;10.390;2024-02-15T07:24:14;101420.06;;;10.56;100.00
59608;BME280;45426;44.726;10.390;2024-02-15T07:26:39;101426.56;;;10.18;100.00
59608;BME280;45426;44.726;10.390;2024-02-15T07:29:05;101436.53;;;9.40;100.00
59608;BME280;45426;44.726;10.390;2024-02-15T07:31:31;101440.69;;;9.65;100.00
59608;BME280;45426;44.726;10.390;2024-02-15T07:34:02;101435.75;;;9.81;100.00
59608;BME280;45426;44.726;10.390;2024-02-15T07:36:30;101431.22;;;10.04;100.00
59608;BME280;45426;44.726;10.390;2024-02-15T07:38:56;101444.25;;;11.74;100.00
59608;BME280;45426;44.726;10.390;2024-02-15T07:41:26;101440.84;;;12.08;100.00
59608;BME280;45426;44.726;10.390;2024-02-15T07:43:53;101439.59;;;13.96;100.00
59608;BME280;45426;44.726;10.390;2024-02-15T07:46:23;101438.31;;;16.59;100.00
59608;BME280;45426;44.726;10.390;2024-02-15T07:48:49;101450.13;;;13.76;100.00
59608;BME280;45426;44.726;10.390;2024-02-15T07:51:16;101447.22;;;13.26;100.00
59608;BME280;45426;44.726;10.390;2024-02-15T07:53:53;101450.22;;;12.51;100.00
59608;BME280;45426;44.726;10.390;2024-02-15T07:56:19;101448.13;;;12.56;100.00
59608;BME280;45426;44.726;10.390;2024-02-15T07:58:48;101445.50;;;13.21;100.00
59608;BME280;45426;44.726;10.390;2024-02-15T08:01:14;101449.56;;;12.80;100.00
59608;BME280;45426;44.726;10.390;2024-02-15T08:03:40;101452.56;;;13.31;100.00
59608;BME280;45426;44.726;10.390;2024-02-15T08:06:16;101439.03;;;14.53;100.00
59608;BME280;45426;44.726;10.390;2024-02-15T08:08:47;101440.16;;;14.10;100.00
59608;BME280;45426;44.726;10.390;2024-02-15T08:11:13;101433.91;;;14.31;100.00
59608;BME280;45426;44.726;10.390;2024-02-15T08:13:50;101432.19;;;16.49;100.00
59608;BME280;45426;44.726;10.390;2024-02-15T08:16:22;101434.66;;;15.40;100.00
59608;BME280;45426;44.726;10.390;2024-02-15T08:18:48;101428.19;;;15.82;100.00
59608;BME280;45426;44.726;10.390;2024-02-15T08:21:17;101431.81;;;15.24;100.00
59608;BME280;45426;44.726;10.390;2024-02-15T08:23:43;101434.38;;;15.08;100.00
59608;BME280;45426;44.726;10.390;2024-02-15T08:26:08;101435.03;;;14.30;100.00
59608;BME280;45426;44.726;10.390;2024-02-15T08:28:38;101422.81;;;14.57;100.00
59608;BME280;45426;44.726;10.390;2024-02-15T08:31:04;101430.75;;;16.96;100.00
59608;BME280;45426;44.726;10.390;2024-02-15T08:33:29;101429.75;;;17.64;100.00
59608;BME280;45426;44.726;10.390;2024-02-15T08:35:55;101423.66;;;18.07;100.00
59608;BME280;45426;44.726;10.390;2024-02-15T08:38:24;101433.47;;;17.40;100.00
59608;BME280;45426;44.726;10.390;2024-02-15T08:40:50;101421.75;;;18.66;100.00
59608;BME280;45426;44.726;10.390;2024-02-15T08:43:15;101425.81;;;20.44;100.00
59608;BME280;45426;44.726;10.390;2024-02-15T08:49:40;101419.22;;;21.27;100.00
59608;BME280;45426;44.726;10.390;2024-02-15T08:52:52;101416.81;;;22.29;100.00
59608;BME280;45426;44.726;10.390;2024-02-15T08:55:46;101418.19;;;19.27;100.00
59608;BME280;45426;44.726;10.390;2024-02-15T09:02:05;101417.06;;;23.59;100.00
59608;BME280;45426;44.726;10.390;2024-02-15T09:04:34;101432.16;;;18.76;100.00
59608;BME280;45426;44.726;10.390;2024-02-15T09:07:19;101429.03;;;17.99;100.00
59608;BME280;45426;44.726;10.390;2024-02-15T09:09:56;101424.00;;;19.95;100.00
59608;BME280;45426;44.726;10.390;2024-02-15T09:12:24;101425.97;;;21.78;100.00
59608;BME280;45426;44.726;10.390;2024-02-15T09:14:55;101423.00;;;18.49;100.00
59608;BME280;45426;44.726;10.390;2024-02-15T09:17:24;101413.72;;;19.92;100.00
59608;BME280;45426;44.726;10.390;2024-02-15T09:19:52;101431.09;;;19.23;100.00
59608;BME280;45426;44.726;10.390;2024-02-15T09:22:19;101432.53;;;20.43;100.00
59608;BME280;45426;44.726;10.390;2024-02-15T09:24:48;101426.81;;;21.34;100.00
59608;BME280;45426;44.726;10.390;2024-02-15T09:27:13;101432.06;;;20.38;100.00
59608;BME280;45426;44.726;10.390;2024-02-15T09:29:39;101415.47;;;18.65;100.00
59608;BME280;45426;44.726;10.390;2024-02-15T09:32:08;101421.06;;;22.20;100.00
59608;BME280;45426;44.726;10.390;2024-02-15T09:34:33;101424.09;;;20.32;100.00
59608;BME280;45426;44.726;10.390;2024-02-15T09:37:09;101420.13;;;20.60;100.00
59608;BME280;45426;44.726;10.390;2024-02-15T09:39:38;101425.66;;;20.60;100.00
59608;BME280;45426;44.726;10.390;2024-02-15T09:42:14;101412.50;;;22.43;100.00
59608;BME280;45426;44.726;10.390;2024-02-15T09:44:40;101421.09;;;20.45;100.00
59608;BME280;45426;44.726;10.390;2024-02-15T09:50:56;101405.56;;;23.46;100.00
59608;BME280;45426;44.726;10.390;2024-02-15T09:53:23;101416.69;;;22.15;100.00
59608;BME280;45426;44.726;10.390;2024-02-15T09:55:53;101414.25;;;23.23;100.00
59608;BME280;45426;44.726;10.390;2024-02-15T09:58:19;101418.72;;;21.59;100.00
59608;BME280;45426;44.726;10.390;2024-02-15T10:00:45;101409.91;;;23.72;100.00
59608;BME280;45426;44.726;10.390;2024-02-15T10:03:13;101404.75;;;23.53;100.00
59608;BME280;45426;44.726;10.390;2024-02-15T10:08:34;101404.38;;;23.79;100.00
59608;BME280;45426;44.726;10.390;2024-02-15T10:11:08;101401.59;;;23.25;100.00
59608;BME280;45426;44.726;10.390;2024-02-15T10:13:56;101411.38;;;24.16;100.00
59608;BME280;45426;44.726;10.390;2024-02-15T10:16:50;101411.56;;;21.06;100.00
59608;BME280;45426;44.726;10.390;2024-02-15T10:19:23;101400.19;;;18.87;100.00
59608;BME280;45426;44.726;10.390;2024-02-15T10:21:52;101409.75;;;17.32;100.00
59608;BME280;45426;44.726;10.390;2024-02-15T10:24:22;101399.72;;;18.27;100.00
59608;BME280;45426;44.726;10.390;2024-02-15T10:26:51;101393.69;;;18.79;100.00
59608;BME280;45426;44.726;10.390;2024-02-15T10:29:20;101396.97;;;18.85;100.00
59608;BME280;45426;44.726;10.390;2024-02-15T10:31:57;101398.03;;;19.00;100.00
59608;BME280;45426;44.726;10.390;2024-02-15T10:34:24;101410.34;;;16.53;100.00
59608;BME280;45426;44.726;10.390;2024-02-15T10:36:53;101410.16;;;17.66;100.00
59608;BME280;45426;44.726;10.390;2024-02-15T10:39:21;101396.25;;;17.43;100.00
59608;BME280;45426;44.726;10.390;2024-02-15T10:41:50;101389.53;;;18.27;100.00
59608;BME280;45426;44.726;10.390;2024-02-15T10:44:25;101389.22;;;17.61;100.00
59608;BME280;45426;44.726;10.390;2024-02-15T10:46:54;101382.53;;;18.30;100.00
59608;BME280;45426;44.726;10.390;2024-02-15T10:49:26;101385.47;;;15.93;100.00
59608;BME280;45426;44.726;10.390;2024-02-15T10:51:58;101385.16;;;17.07;100.00
59608;BME280;45426;44.726;10.390;2024-02-15T10:54:46;101380.59;;;17.95;100.00
59608;BME280;45426;44.726;10.390;2024-02-15T10:57:17;101381.41;;;16.27;100.00
59608;BME280;45426;44.726;10.390;2024-02-15T11:00:05;101378.09;;;17.22;100.00
59608;BME280;45426;44.726;10.390;2024-02-15T11:03:02;101366.66;;;16.60;100.00
59608;BME280;45426;44.726;10.390;2024-02-15T11:05:35;101374.44;;;16.58;100.00
59608;BME280;45426;44.726;10.390;2024-02-15T11:08:07;101369.31;;;15.76;100.00
59608;BME280;45426;44.726;10.390;2024-02-15T11:10:37;101358.91;;;17.58;100.00
59608;BME280;45426;44.726;10.390;2024-02-15T11:13:04;101357.69;;;17.39;100.00
59608;BME280;45426;44.726;10.390;2024-02-15T11:18:02;101347.28;;;16.69;100.00
59608;BME280;45426;44.726;10.390;2024-02-15T11:23:03;101347.88;;;16.46;100.00
59608;BME280;45426;44.726;10.390;2024-02-15T11:25:35;101341.47;;;17.50;100.00
59608;BME280;45426;44.726;10.390;2024-02-15T11:30:55;101336.22;;;16.81;100.00
59608;BME280;45426;44.726;10.390;2024-02-15T11:33:28;101325.00;;;17.50;100.00
59608;BME280;45426;44.726;10.390;2024-02-15T11:36:07;101330.78;;;16.53;100.00
59608;BME280;45426;44.726;10.390;2024-02-15T11:38:37;101327.59;;;17.11;100.00
59608;BME280;45426;44.726;10.390;2024-02-15T11:41:07;101330.16;;;16.72;100.00
59608;BME280;45426;44.726;10.390;2024-02-15T11:46:13;101315.34;;;16.33;100.00
59608;BME280;45426;44.726;10.390;2024-02-15T11:48:39;101318.72;;;16.26;100.00
59608;BME280;45426;44.726;10.390;2024-02-15T11:51:05;101316.41;;;16.28;100.00
59608;BME280;45426;44.726;10.390;2024-02-15T11:53:32;101317.75;;;16.78;100.00
59608;BME280;45426;44.726;10.390;2024-02-15T11:56:10;101298.38;;;17.35;100.00
59608;BME280;45426;44.726;10.390;2024-02-15T11:58:40;101300.72;;;16.57;100.00
59608;BME280;45426;44.726;10.390;2024-02-15T12:01:17;101303.00;;;16.10;100.00
59608;BME280;45426;44.726;10.390;2024-02-15T12:04:02;101292.22;;;16.18;100.00
59608;BME280;45426;44.726;10.390;2024-02-15T12:06:46;101294.09;;;15.61;100.00
59608;BME280;45426;44.726;10.390;2024-02-15T12:09:30;101279.63;;;17.05;100.00
59608;BME280;45426;44.726;10.390;2024-02-15T12:12:14;101279.63;;;17.76;100.00
59608;BME280;45426;44.726;10.390;2024-02-15T12:15:02;101287.94;;;17.24;100.00
59608;BME280;45426;44.726;10.390;2024-02-15T12:17:46;101274.13;;;17.05;100.00
59608;BME280;45426;44.726;10.390;2024-02-15T12:20:31;101274.38;;;18.06;100.00
59608;BME280;45426;44.726;10.390;2024-02-15T12:22:57;101272.81;;;16.83;100.00
59608;BME280;45426;44.726;10.390;2024-02-15T12:25:25;101270.38;;;16.81;100.00
59608;BME280;45426;44.726;10.390;2024-02-15T12:27:56;101269.06;;;15.87;100.00
59608;BME280;45426;44.726;10.390;2024-02-15T12:30:22;101265.63;;;15.65;100.00
59608;BME280;45426;44.726;10.390;2024-02-15T12:32:51;101263.47;;;16.11;100.00
59608;BME280;45426;44.726;10.390;2024-02-15T12:35:19;101258.63;;;16.21;100.00
59608;BME280;45426;44.726;10.390;2024-02-15T12:37:45;101259.69;;;15.88;100.00
59608;BME280;45426;44.726;10.390;2024-02-15T12:40:16;101248.19;;;16.86;100.00
59608;BME280;45426;44.726;10.390;2024-02-15T12:42:46;101244.44;;;16.79;100.00
59608;BME280;45426;44.726;10.390;2024-02-15T12:45:18;101234.38;;;16.67;100.00
59608;BME280;45426;44.726;10.390;2024-02-15T12:47:55;101229.34;;;17.36;100.00
59608;BME280;45426;44.726;10.390;2024-02-15T12:50:27;101228.03;;;16.95;100.00
59608;BME280;45426;44.726;10.390;2024-02-15T12:52:53;101221.28;;;16.76;100.00
59608;BME280;45426;44.726;10.390;2024-02-15T12:55:43;101220.19;;;16.33;100.00
59608;BME280;45426;44.726;10.390;2024-02-15T13:16:15;101194.94;;;18.01;100.00
59608;BME280;45426;44.726;10.390;2024-02-15T13:18:40;101182.72;;;17.59;100.00
59608;BME280;45426;44.726;10.390;2024-02-15T13:21:06;101180.69;;;17.37;100.00
59608;BME280;45426;44.726;10.390;2024-02-15T13:23:31;101179.25;;;17.23;100.00
59608;BME280;45426;44.726;10.390;2024-02-15T13:25:57;101182.09;;;17.11;100.00
59608;BME280;45426;44.726;10.390;2024-02-15T13:28:33;101184.72;;;16.40;100.00